createdAt,value
2023-04-29T00:00:11.298Z,28.30
2023-04-29T00:02:59.280Z,26.30
2023-04-29T00:05:27.559Z,23.60
2023-04-29T00:07:55.407Z,28.30
2023-04-29T00:10:23.179Z,21.80
2023-04-29T00:12:51.623Z,26.00
2023-04-29T00:15:19.705Z,22.40
2023-04-29T00:17:48.270Z,23.50
2023-04-29T00:20:16.282Z,22.20
2023-04-29T00:22:44.144Z,24.90
2023-04-29T00:25:12.338Z,21.00
2023-04-29T00:27:40.913Z,24.20
2023-04-29T00:30:09.387Z,19.60
2023-04-29T00:32:37.479Z,20.20
2023-04-29T00:35:05.965Z,22.60
2023-04-29T00:37:35.240Z,23.30
2023-04-29T00:40:04.351Z,24.50
2023-04-29T00:42:34.000Z,26.60
2023-04-29T00:45:02.791Z,22.60
2023-04-29T00:47:30.600Z,24.50
2023-04-29T00:49:58.401Z,23.20
2023-04-29T00:52:27.412Z,20.50
2023-04-29T00:54:55.306Z,23.90
2023-04-29T00:57:23.180Z,20.10
2023-04-29T00:59:51.434Z,20.80
2023-04-29T01:02:19.513Z,23.90
2023-04-29T01:04:47.933Z,23.10
2023-04-29T01:07:18.186Z,22.10
2023-04-29T01:10:14.217Z,22.10
2023-04-29T01:12:47.512Z,26.80
2023-04-29T01:15:31.092Z,23.10
2023-04-29T01:18:05.704Z,24.40
2023-04-29T01:20:37.897Z,19.60
2023-04-29T01:23:05.938Z,25.00
2023-04-29T01:25:34.113Z,24.50
2023-04-29T01:28:14.966Z,24.70
2023-04-29T01:31:04.157Z,23.30
2023-04-29T01:34:00.098Z,23.80
2023-04-29T01:37:01.478Z,28.20
2023-04-29T01:39:50.641Z,30.20
2023-04-29T01:42:23.904Z,31.50
2023-04-29T01:44:53.429Z,33.10
2023-04-29T01:47:21.683Z,48.50
2023-04-29T01:49:49.949Z,31.70
2023-04-29T01:52:18.039Z,31.30
2023-04-29T01:54:46.157Z,40.40
2023-04-29T01:57:13.964Z,38.70
2023-04-29T01:59:42.359Z,37.10
2023-04-29T02:02:10.399Z,34.10
2023-04-29T02:04:38.501Z,37.30
2023-04-29T02:07:06.380Z,37.30
2023-04-29T02:09:34.114Z,36.30
2023-04-29T02:12:04.178Z,34.90
2023-04-29T02:14:32.163Z,31.90
2023-04-29T02:17:00.515Z,39.50
2023-04-29T02:19:28.620Z,39.90
2023-04-29T02:21:56.625Z,37.70
2023-04-29T02:24:24.417Z,33.60
2023-04-29T02:26:53.009Z,37.70
2023-04-29T02:29:20.874Z,38.80
2023-04-29T02:31:48.798Z,37.30
2023-04-29T02:34:16.632Z,41.00
2023-04-29T02:36:44.595Z,38.40
2023-04-29T02:39:12.571Z,40.00
2023-04-29T02:41:40.439Z,37.30
2023-04-29T02:44:08.393Z,37.80
2023-04-29T02:46:36.995Z,41.30
2023-04-29T02:49:05.174Z,37.80
2023-04-29T02:51:33.505Z,43.10
2023-04-29T02:54:01.327Z,33.20
2023-04-29T02:56:29.763Z,30.30
2023-04-29T02:58:57.554Z,33.30
2023-04-29T03:01:25.470Z,30.70
2023-04-29T03:03:54.219Z,28.00
2023-04-29T03:06:22.181Z,26.20
2023-04-29T03:08:50.600Z,28.60
2023-04-29T03:11:18.413Z,24.10
2023-04-29T03:13:46.409Z,26.40
2023-04-29T03:16:15.349Z,27.90
2023-04-29T03:18:44.181Z,30.90
2023-04-29T03:21:12.066Z,26.00
2023-04-29T03:23:40.231Z,28.70
2023-04-29T03:26:08.164Z,26.80
2023-04-29T03:28:36.101Z,28.30
2023-04-29T03:31:04.017Z,28.00
2023-04-29T03:33:31.903Z,29.80
2023-04-29T03:35:59.862Z,29.80
2023-04-29T03:38:28.012Z,26.20
2023-04-29T03:40:55.950Z,25.70
2023-04-29T03:43:23.760Z,28.70
2023-04-29T03:45:51.647Z,30.20
2023-04-29T03:48:22.189Z,24.40
2023-04-29T03:50:50.283Z,27.50
2023-04-29T03:53:19.125Z,29.00
2023-04-29T03:55:47.025Z,26.80
2023-04-29T03:58:14.818Z,24.70
2023-04-29T04:00:42.981Z,24.30
2023-04-29T04:03:10.863Z,30.80
2023-04-29T04:05:38.750Z,25.50
2023-04-29T04:08:06.754Z,25.70
2023-04-29T04:10:34.548Z,25.30
2023-04-29T04:13:02.320Z,25.70
2023-04-29T04:15:30.072Z,22.80
2023-04-29T04:17:58.025Z,21.90
2023-04-29T04:20:25.945Z,22.60
2023-04-29T04:22:54.905Z,24.20
2023-04-29T04:25:22.696Z,19.50
2023-04-29T04:27:50.928Z,21.00
2023-04-29T04:30:18.824Z,23.20
2023-04-29T04:32:46.709Z,23.50
2023-04-29T04:35:15.221Z,26.40
2023-04-29T04:37:43.100Z,23.90
2023-04-29T04:40:12.093Z,19.30
2023-04-29T04:42:39.979Z,20.60
2023-04-29T04:45:09.715Z,23.20
2023-04-29T04:47:37.861Z,20.80
2023-04-29T04:50:06.886Z,22.50
2023-04-29T04:52:34.937Z,22.20
2023-04-29T04:55:02.967Z,27.00
2023-04-29T04:57:30.774Z,21.10
2023-04-29T04:59:58.584Z,19.70
2023-04-29T05:02:26.866Z,24.20
2023-04-29T05:04:54.925Z,22.70
2023-04-29T05:07:22.744Z,25.70
2023-04-29T05:09:50.852Z,22.80
2023-04-29T05:12:18.781Z,22.50
2023-04-29T05:14:46.685Z,22.50
2023-04-29T05:17:14.497Z,21.50
2023-04-29T05:19:42.237Z,19.40
2023-04-29T05:22:10.082Z,24.30
2023-04-29T05:24:38.421Z,21.90
2023-04-29T05:27:06.253Z,18.20
2023-04-29T05:29:34.029Z,18.50
2023-04-29T05:32:02.162Z,23.80
2023-04-29T05:34:30.160Z,25.90
2023-04-29T05:36:58.191Z,18.90
2023-04-29T05:39:26.813Z,20.30
2023-04-29T05:41:54.567Z,21.50
2023-04-29T05:44:22.859Z,22.50
2023-04-29T05:46:51.917Z,20.20
2023-04-29T05:49:19.710Z,20.10
2023-04-29T05:51:47.482Z,22.00
2023-04-29T05:54:15.670Z,21.30
2023-04-29T05:56:43.573Z,18.50
2023-04-29T05:59:11.504Z,20.10
2023-04-29T06:01:39.357Z,24.30
2023-04-29T06:04:08.296Z,20.00
2023-04-29T06:06:36.398Z,18.10
2023-04-29T06:09:08.534Z,19.40
2023-04-29T06:11:37.349Z,20.10
2023-04-29T06:14:05.907Z,20.70
2023-04-29T06:16:34.070Z,20.60
2023-04-29T06:19:02.163Z,23.10
2023-04-29T06:21:30.149Z,19.50
2023-04-29T06:23:58.613Z,18.60
2023-04-29T06:26:26.569Z,23.40
2023-04-29T06:28:54.948Z,19.00
2023-04-29T06:31:23.267Z,20.70
2023-04-29T06:33:51.627Z,20.00
2023-04-29T06:36:19.389Z,18.40
2023-04-29T06:38:47.174Z,19.10
2023-04-29T06:41:15.082Z,22.70
2023-04-29T06:43:43.440Z,22.00
2023-04-29T06:46:11.419Z,22.10
2023-04-29T06:48:39.245Z,19.00
2023-04-29T06:51:07.277Z,19.20
2023-04-29T06:53:35.125Z,19.70
2023-04-29T06:56:03.092Z,17.70
2023-04-29T06:58:31.028Z,17.50
2023-04-29T07:00:58.900Z,20.30
2023-04-29T07:03:26.783Z,17.40
2023-04-29T07:05:54.779Z,22.00
2023-04-29T07:08:23.220Z,17.50
2023-04-29T07:10:57.914Z,20.50
2023-04-29T07:13:26.304Z,17.00
2023-04-29T07:15:54.286Z,22.80
2023-04-29T07:18:23.282Z,25.50
2023-04-29T07:20:52.938Z,18.90
2023-04-29T07:23:21.073Z,19.70
2023-04-29T07:25:48.807Z,20.90
2023-04-29T07:28:17.323Z,19.80
2023-04-29T07:30:45.274Z,19.90
2023-04-29T07:33:15.902Z,17.40
2023-04-29T07:35:44.674Z,18.80
2023-04-29T07:38:13.052Z,22.80
2023-04-29T07:40:42.270Z,22.30
2023-04-29T07:43:10.170Z,26.10
2023-04-29T07:45:38.213Z,20.10
2023-04-29T07:48:06.636Z,18.70
2023-04-29T07:50:36.640Z,16.30
2023-04-29T07:53:04.905Z,20.00
2023-04-29T07:55:32.969Z,19.30
2023-04-29T07:58:00.852Z,15.50
2023-04-29T08:00:28.736Z,18.90
2023-04-29T08:02:58.047Z,15.70
2023-04-29T08:05:27.327Z,18.80
2023-04-29T08:07:55.926Z,17.10
2023-04-29T08:10:23.781Z,18.10
2023-04-29T08:12:51.761Z,16.50
2023-04-29T08:15:20.374Z,18.60
2023-04-29T08:17:48.306Z,17.90
2023-04-29T08:20:16.285Z,17.40
2023-04-29T08:22:44.168Z,15.80
2023-04-29T08:25:12.064Z,15.30
2023-04-29T08:27:39.996Z,15.60
2023-04-29T08:30:09.045Z,14.70
2023-04-29T08:32:37.034Z,13.90
2023-04-29T08:35:05.434Z,15.60
2023-04-29T08:37:33.207Z,16.00
2023-04-29T08:40:01.049Z,17.00
2023-04-29T08:42:37.588Z,17.60
2023-04-29T08:45:06.279Z,23.10
2023-04-29T08:47:34.503Z,15.30
2023-04-29T08:50:05.323Z,17.80
2023-04-29T08:52:33.560Z,12.50
2023-04-29T08:55:02.986Z,16.00
2023-04-29T08:57:39.662Z,14.30
2023-04-29T09:00:10.406Z,15.60
2023-04-29T09:02:45.570Z,15.10
2023-04-29T09:05:13.514Z,17.50
2023-04-29T09:07:42.255Z,17.80
2023-04-29T09:10:11.033Z,13.10
2023-04-29T09:12:38.909Z,13.50
2023-04-29T09:15:07.611Z,14.80
2023-04-29T09:17:53.830Z,12.90
2023-04-29T09:20:21.942Z,13.10
2023-04-29T09:22:59.847Z,11.30
2023-04-29T09:25:28.458Z,11.80
2023-04-29T09:27:57.031Z,15.70
2023-04-29T09:30:26.975Z,16.70
2023-04-29T09:33:26.154Z,15.20
2023-04-29T09:35:57.518Z,14.90
2023-04-29T09:38:25.476Z,19.30
2023-04-29T09:40:59.632Z,14.60
2023-04-29T09:43:28.909Z,13.70
2023-04-29T09:45:57.377Z,14.10
2023-04-29T09:48:32.217Z,12.40
2023-04-29T09:51:03.376Z,12.90
2023-04-29T09:53:31.977Z,12.60
2023-04-29T09:56:02.837Z,13.10
2023-04-29T09:58:37.509Z,12.10
2023-04-29T10:01:09.416Z,11.90
2023-04-29T10:03:38.985Z,12.30
2023-04-29T10:06:08.740Z,14.70
2023-04-29T10:08:37.151Z,16.60
2023-04-29T10:11:06.225Z,12.40
2023-04-29T10:13:35.677Z,13.60
2023-04-29T10:16:23.899Z,14.00
2023-04-29T10:18:57.133Z,12.50
2023-04-29T10:21:31.672Z,13.50
2023-04-29T10:24:02.561Z,13.50
2023-04-29T10:26:32.312Z,16.60
2023-04-29T10:29:01.215Z,17.30
2023-04-29T10:31:30.492Z,16.50
2023-04-29T10:33:59.385Z,15.40
2023-04-29T10:36:28.699Z,14.50
2023-04-29T10:39:03.563Z,15.90
2023-04-29T10:41:45.932Z,18.30
2023-04-29T10:44:14.494Z,14.80
2023-04-29T10:46:44.880Z,15.70
2023-04-29T10:49:13.260Z,13.00
2023-04-29T10:51:45.853Z,12.20
2023-04-29T10:56:50.803Z,17.50
2023-04-29T10:59:43.460Z,13.30
2023-04-29T11:02:11.527Z,17.90
2023-04-29T11:05:09.482Z,16.90
2023-04-29T11:07:37.464Z,15.60
2023-04-29T11:10:07.492Z,20.30
2023-04-29T11:12:35.642Z,16.00
2023-04-29T11:15:05.066Z,15.50
2023-04-29T11:17:38.176Z,17.10
2023-04-29T11:20:13.774Z,15.90
2023-04-29T11:22:43.148Z,15.70
2023-04-29T11:25:11.817Z,17.40
2023-04-29T11:27:42.682Z,20.10
2023-04-29T11:30:11.592Z,20.30
2023-04-29T11:32:42.662Z,19.30
2023-04-29T11:35:16.328Z,18.90
2023-04-29T11:37:46.109Z,20.50
2023-04-29T11:40:14.962Z,19.70
2023-04-29T11:42:48.493Z,21.90
2023-04-29T11:45:19.353Z,18.50
2023-04-29T11:47:48.827Z,18.50
2023-04-29T11:50:19.883Z,20.20
2023-04-29T11:52:49.269Z,19.30
2023-04-29T11:55:17.760Z,18.80
2023-04-29T11:57:49.489Z,18.10
2023-04-29T12:00:17.551Z,21.50
2023-04-29T12:02:47.242Z,21.60
2023-04-29T12:05:17.594Z,20.50
2023-04-29T12:07:46.598Z,17.90
2023-04-29T12:10:15.207Z,16.80
2023-04-29T12:12:46.717Z,16.10
2023-04-29T12:15:14.855Z,14.00
2023-04-29T12:17:43.594Z,13.40
2023-04-29T12:20:12.887Z,12.80
2023-04-29T12:22:44.063Z,13.00
2023-04-29T12:25:12.397Z,12.60
2023-04-29T12:27:44.033Z,27.10
2023-04-29T12:30:12.977Z,14.60
2023-04-29T12:32:41.505Z,15.20
2023-04-29T12:35:17.418Z,12.50
2023-04-29T12:37:50.285Z,12.90
2023-04-29T12:40:20.872Z,10.70
2023-04-29T12:42:49.208Z,10.20
2023-04-29T12:45:29.145Z,11.60
2023-04-29T12:47:58.094Z,9.90
2023-04-29T12:50:34.881Z,9.70
2023-04-29T12:53:05.300Z,12.40
2023-04-29T12:55:35.049Z,9.20
2023-04-29T12:58:04.587Z,9.50
2023-04-29T13:00:32.667Z,9.70
2023-04-29T13:03:01.717Z,9.50
2023-04-29T13:05:29.755Z,10.10
2023-04-29T13:07:58.005Z,10.20
2023-04-29T13:10:26.166Z,8.50
2023-04-29T13:12:54.708Z,10.80
2023-04-29T13:15:23.056Z,9.50
2023-04-29T13:17:51.857Z,6.10
2023-04-29T13:20:22.381Z,7.80
2023-04-29T13:22:50.637Z,4.80
2023-04-29T13:25:18.598Z,3.60
2023-04-29T13:27:46.676Z,2.60
2023-04-29T13:30:15.403Z,1.80
2023-04-29T13:32:49.411Z,1.60
2023-04-29T13:35:21.571Z,2.10
2023-04-29T13:37:49.582Z,2.00
2023-04-29T13:40:20.549Z,3.20
2023-04-29T13:42:54.719Z,2.90
2023-04-29T13:45:30.580Z,2.10
2023-04-29T13:48:09.661Z,6.00
2023-04-29T14:03:21.188Z,5.60
2023-04-29T14:05:49.420Z,4.10
2023-04-29T14:08:20.381Z,2.50
2023-04-29T14:10:48.356Z,2.70
2023-04-29T14:13:17.697Z,3.30
2023-04-29T14:15:45.988Z,3.20
2023-04-29T14:18:13.982Z,4.20
2023-04-29T14:20:41.954Z,7.40
2023-04-29T14:23:10.073Z,6.80
2023-04-29T14:25:38.114Z,5.00
2023-04-29T14:28:06.249Z,5.90
2023-04-29T14:30:34.188Z,5.90
2023-04-29T14:33:02.113Z,10.50
2023-04-29T14:35:31.695Z,5.60
2023-04-29T14:38:01.255Z,7.20
2023-04-29T14:40:29.612Z,6.90
2023-04-29T14:43:01.233Z,6.90
2023-04-29T14:45:30.591Z,7.60
2023-04-29T14:47:58.513Z,6.50
2023-04-29T14:50:26.829Z,7.00
2023-04-29T14:52:54.889Z,7.70
2023-04-29T14:55:22.794Z,7.30
2023-04-29T14:57:50.870Z,9.30
2023-04-29T15:00:18.894Z,10.50
2023-04-29T15:02:47.013Z,8.00
2023-04-29T15:05:15.184Z,9.20
2023-04-29T15:07:43.363Z,10.10
2023-04-29T15:10:13.740Z,10.10
2023-04-29T15:12:41.806Z,8.10
2023-04-29T15:15:10.866Z,10.00
2023-04-29T15:17:38.826Z,11.20
2023-04-29T15:20:07.909Z,8.90
2023-04-29T15:22:35.990Z,10.80
2023-04-29T15:25:04.626Z,11.60
2023-04-29T15:27:34.784Z,10.20
2023-04-29T15:30:04.043Z,11.40
2023-04-29T15:32:32.683Z,9.30
2023-04-29T15:35:02.861Z,11.40
2023-04-29T15:37:30.965Z,12.10
2023-04-29T15:40:00.294Z,8.90
2023-04-29T15:42:28.501Z,8.10
2023-04-29T15:44:56.630Z,8.10
2023-04-29T15:47:24.769Z,7.70
2023-04-29T15:49:53.068Z,7.40
2023-04-29T15:52:21.171Z,7.70
2023-04-29T15:54:49.066Z,8.30
2023-04-29T15:57:16.916Z,9.50
2023-04-29T15:59:44.936Z,9.00
2023-04-29T16:02:13.972Z,9.50
2023-04-29T16:04:41.995Z,9.60
2023-04-29T16:07:09.913Z,10.20
2023-04-29T16:09:37.858Z,10.40
2023-04-29T16:12:05.931Z,10.00
2023-04-29T16:14:34.003Z,10.40
2023-04-29T16:17:02.136Z,11.60
2023-04-29T16:19:29.970Z,13.50
2023-04-29T16:22:00.935Z,12.60
2023-04-29T16:24:28.867Z,12.20
2023-04-29T16:26:57.365Z,13.40
2023-04-29T16:29:25.805Z,13.20
2023-04-29T16:31:54.005Z,12.30
2023-04-29T16:34:22.016Z,15.40
2023-04-29T16:36:50.075Z,14.80
2023-04-29T16:39:18.108Z,15.10
2023-04-29T16:41:46.120Z,16.00
2023-04-29T16:44:14.619Z,14.10
2023-04-29T16:46:42.650Z,16.90
2023-04-29T16:49:10.754Z,21.60
2023-04-29T16:51:38.724Z,17.70
2023-04-29T16:54:08.092Z,21.10
2023-04-29T16:56:36.157Z,19.30
2023-04-29T16:59:04.051Z,20.90
2023-04-29T17:01:32.502Z,18.50
2023-04-29T17:04:01.416Z,19.70
2023-04-29T17:06:30.086Z,22.40
2023-04-29T17:08:58.355Z,25.10
2023-04-29T17:11:26.370Z,25.60
2023-04-29T17:13:54.247Z,24.80
2023-04-29T17:16:22.172Z,27.40
2023-04-29T17:18:50.211Z,29.50
2023-04-29T17:21:18.065Z,32.30
2023-04-29T17:23:48.045Z,35.10
2023-04-29T17:26:15.845Z,30.30
2023-04-29T17:28:44.872Z,33.30
2023-04-29T17:31:12.902Z,36.60
2023-04-29T17:33:54.869Z,37.20
2023-04-29T17:36:22.923Z,41.10
2023-04-29T17:38:50.771Z,42.80
2023-04-29T17:41:18.586Z,39.90
2023-04-29T17:43:47.195Z,46.10
2023-04-29T17:46:15.249Z,47.90
2023-04-29T17:48:43.314Z,48.10
2023-04-29T17:51:11.160Z,39.70
2023-04-29T17:53:39.075Z,50.20
2023-04-29T17:56:07.452Z,51.20
2023-04-29T17:58:35.643Z,53.80
2023-04-29T18:01:06.007Z,52.70
2023-04-29T18:03:33.999Z,56.00
2023-04-29T18:06:02.218Z,50.20
2023-04-29T18:08:30.248Z,53.70
2023-04-29T18:10:58.047Z,50.60
2023-04-29T18:13:27.199Z,51.50
2023-04-29T18:15:55.701Z,52.10
2023-04-29T18:18:23.525Z,45.30
2023-04-29T18:20:52.023Z,53.40
2023-04-29T18:23:19.873Z,46.80
2023-04-29T18:25:47.687Z,45.80
2023-04-29T18:28:24.653Z,52.90
2023-04-29T18:30:53.336Z,45.10
2023-04-29T18:33:21.484Z,39.40
2023-04-29T18:35:49.615Z,43.40
2023-04-29T18:38:17.603Z,38.70
2023-04-29T18:40:45.529Z,42.50
2023-04-29T18:43:17.202Z,38.40
2023-04-29T18:45:45.961Z,44.70
2023-04-29T18:48:15.049Z,36.10
2023-04-29T18:50:43.112Z,32.90
2023-04-29T18:53:10.982Z,29.00
2023-04-29T18:55:38.864Z,32.80
2023-04-29T18:58:06.758Z,29.70
2023-04-29T19:00:34.698Z,32.20
2023-04-29T19:03:02.609Z,28.40
2023-04-29T19:05:31.089Z,30.20
2023-04-29T19:07:59.192Z,26.90
2023-04-29T19:10:26.952Z,30.30
2023-04-29T19:12:55.472Z,28.20
2023-04-29T19:15:25.242Z,25.50
2023-04-29T19:17:53.194Z,23.30
2023-04-29T19:20:21.289Z,24.70
2023-04-29T19:22:49.117Z,24.60
2023-04-29T19:25:17.086Z,22.70
2023-04-29T19:27:45.238Z,22.60
2023-04-29T19:30:13.707Z,22.00
2023-04-29T19:32:41.912Z,21.70
2023-04-29T19:35:10.403Z,18.00
2023-04-29T19:37:38.449Z,17.80
2023-04-29T19:40:09.974Z,19.10
2023-04-29T19:42:39.290Z,17.50
2023-04-29T19:45:08.385Z,19.60
2023-04-29T19:47:36.785Z,17.30
2023-04-29T19:50:05.333Z,21.40
2023-04-29T19:52:33.503Z,20.70
2023-04-29T19:55:01.395Z,20.20
2023-04-29T19:57:29.173Z,19.90
2023-04-29T19:59:57.331Z,19.40
2023-04-29T20:02:26.116Z,19.10
2023-04-29T20:04:54.405Z,19.70
2023-04-29T20:07:22.264Z,19.70
2023-04-29T20:09:50.108Z,20.60
2023-04-29T20:12:20.565Z,22.90
2023-04-29T20:14:48.673Z,18.10
2023-04-29T20:17:17.702Z,18.00
2023-04-29T20:19:45.988Z,22.50
2023-04-29T20:22:13.960Z,21.70
2023-04-29T20:24:41.738Z,19.20
2023-04-29T20:27:11.048Z,22.20
2023-04-29T20:29:38.977Z,17.50
2023-04-29T20:32:07.094Z,18.90
2023-04-29T20:34:36.418Z,17.80
2023-04-29T20:37:04.221Z,17.10
2023-04-29T20:39:32.125Z,18.50
2023-04-29T20:42:03.187Z,14.70
2023-04-29T20:44:31.462Z,16.10
2023-04-29T20:46:59.475Z,17.20
2023-04-29T20:49:27.271Z,14.90
2023-04-29T20:51:56.163Z,15.70
2023-04-29T20:54:25.963Z,15.60
2023-04-29T20:56:53.793Z,15.90
2023-04-29T20:59:21.716Z,18.00
2023-04-29T21:01:49.588Z,16.50
2023-04-29T21:04:18.161Z,16.00
2023-04-29T21:06:46.134Z,17.00
2023-04-29T21:09:13.995Z,14.50
2023-04-29T21:11:41.871Z,16.30
2023-04-29T21:14:09.736Z,15.30
2023-04-29T21:16:37.810Z,17.00
2023-04-29T21:19:05.803Z,16.90
2023-04-29T21:21:33.693Z,17.60
2023-04-29T21:24:01.776Z,18.70
2023-04-29T21:26:29.648Z,20.50
2023-04-29T21:28:57.523Z,18.00
2023-04-29T21:31:25.531Z,17.30
2023-04-29T21:33:53.450Z,17.50
2023-04-29T21:36:21.323Z,19.80
2023-04-29T21:38:49.537Z,17.10
2023-04-29T21:41:32.089Z,14.90
2023-04-29T21:44:00.895Z,16.50
2023-04-29T21:46:29.561Z,17.30
2023-04-29T21:49:01.098Z,17.10
2023-04-29T21:51:29.885Z,16.30
2023-04-29T21:53:58.023Z,16.50
2023-04-29T21:56:26.111Z,18.10
2023-04-29T21:58:53.996Z,14.00
2023-04-29T22:01:39.933Z,15.80
2023-04-29T22:04:07.949Z,22.50
2023-04-29T22:06:36.364Z,19.90
2023-04-29T22:09:04.723Z,17.50
2023-04-29T22:11:32.642Z,19.60
2023-04-29T22:14:00.524Z,22.50
2023-04-29T22:16:28.537Z,18.20
2023-04-29T22:18:57.604Z,20.50
2023-04-29T22:21:25.565Z,23.60
2023-04-29T22:23:54.381Z,24.90
2023-04-29T22:26:25.532Z,27.70
2023-04-29T22:28:53.496Z,28.60
2023-04-29T22:31:21.607Z,25.10
2023-04-29T22:33:49.664Z,27.90
2023-04-29T22:36:17.597Z,28.10
2023-04-29T22:38:45.443Z,26.30
2023-04-29T22:41:14.207Z,21.10
2023-04-29T22:43:41.976Z,27.40
2023-04-29T22:46:09.825Z,23.30
2023-04-29T22:48:37.869Z,23.20
2023-04-29T22:51:05.928Z,20.60
2023-04-29T22:53:33.801Z,23.40
2023-04-29T22:56:02.208Z,22.10
2023-04-29T22:58:30.180Z,19.10
2023-04-29T23:00:58.146Z,23.80
2023-04-29T23:03:27.502Z,18.40
2023-04-29T23:06:00.380Z,17.60
2023-04-29T23:08:28.472Z,19.30
2023-04-29T23:10:56.342Z,21.00
2023-04-29T23:13:24.257Z,19.70
2023-04-29T23:15:55.614Z,22.40
2023-04-29T23:18:23.591Z,19.70
2023-04-29T23:20:51.686Z,24.70
2023-04-29T23:23:20.101Z,23.60
2023-04-29T23:25:48.705Z,22.10
2023-04-29T23:28:16.618Z,25.90
2023-04-29T23:30:47.899Z,32.90
2023-04-29T23:33:15.876Z,21.90
2023-04-29T23:35:51.513Z,24.90
2023-04-29T23:38:19.832Z,25.10
2023-04-29T23:40:47.794Z,23.20
2023-04-29T23:43:15.799Z,25.00
2023-04-29T23:45:45.853Z,23.60
2023-04-29T23:48:16.101Z,19.30
2023-04-29T23:50:44.005Z,20.60
2023-04-29T23:53:11.775Z,23.30
2023-04-29T23:55:39.656Z,24.60
2023-04-29T23:58:07.809Z,23.50
